createdAt,value
2019-03-22T00:01:23.966Z,10.40
2019-03-22T00:04:04.760Z,10.50
2019-03-22T00:06:45.834Z,10.40
2019-03-22T00:09:26.599Z,10.40
2019-03-22T00:12:07.939Z,10.40
2019-03-22T00:14:48.854Z,10.30
2019-03-22T00:17:30.260Z,10.30
2019-03-22T00:20:10.904Z,10.30
2019-03-22T00:22:52.142Z,10.30
2019-03-22T00:25:33.336Z,10.10
2019-03-22T00:28:14.494Z,10.00
2019-03-22T00:30:55.723Z,9.90
2019-03-22T00:33:36.386Z,9.80
2019-03-22T00:36:17.165Z,9.80
2019-03-22T00:38:58.269Z,9.70
2019-03-22T00:41:39.489Z,9.80
2019-03-22T00:44:20.173Z,9.90
2019-03-22T00:47:00.879Z,9.90
2019-03-22T00:49:41.318Z,9.90
2019-03-22T00:52:22.809Z,9.80
2019-03-22T00:55:03.646Z,9.70
2019-03-22T00:57:44.429Z,9.70
2019-03-22T01:00:24.837Z,9.70
2019-03-22T01:03:05.502Z,9.60
2019-03-22T01:05:46.543Z,9.60
2019-03-22T01:08:27.518Z,9.60
2019-03-22T01:10:56.089Z,9.50
2019-03-22T01:13:24.869Z,9.60
2019-03-22T01:15:53.440Z,9.60
2019-03-22T01:18:41.374Z,9.70
2019-03-22T01:21:29.320Z,9.70
2019-03-22T01:26:52.810Z,9.70
2019-03-22T01:29:33.298Z,9.80
2019-03-22T01:32:14.364Z,9.80
2019-03-22T01:34:55.449Z,9.90
2019-03-22T01:37:35.992Z,9.90
2019-03-22T01:40:16.641Z,9.90
2019-03-22T01:42:57.772Z,9.90
2019-03-22T01:45:38.605Z,9.90
2019-03-22T01:48:19.857Z,9.90
2019-03-22T01:51:01.175Z,9.80
2019-03-22T01:53:42.177Z,9.80
2019-03-22T01:56:23.210Z,9.70
2019-03-22T01:59:03.761Z,9.60
2019-03-22T02:01:45.258Z,9.60
2019-03-22T02:04:26.097Z,9.60
2019-03-22T02:06:54.792Z,9.60
2019-03-22T02:09:23.477Z,9.70
2019-03-22T02:11:52.096Z,9.70
2019-03-22T02:14:20.695Z,9.70
2019-03-22T02:16:49.262Z,9.70
2019-03-22T02:19:38.119Z,9.70
2019-03-22T02:22:26.142Z,9.70
2019-03-22T02:25:06.953Z,9.70
2019-03-22T02:27:47.393Z,9.70
2019-03-22T02:30:28.415Z,9.70
2019-03-22T02:33:08.830Z,9.70
2019-03-22T02:35:49.294Z,9.70
2019-03-22T02:38:30.062Z,9.80
2019-03-22T02:41:10.541Z,9.80
2019-03-22T02:43:54.624Z,9.80
2019-03-22T02:46:33.876Z,9.80
2019-03-22T02:49:15.022Z,9.70
2019-03-22T02:51:55.887Z,9.70
2019-03-22T02:54:36.513Z,9.70
2019-03-22T02:57:17.189Z,9.80
2019-03-22T02:59:57.643Z,9.80
2019-03-22T03:02:26.240Z,9.80
2019-03-22T03:04:54.933Z,9.80
2019-03-22T03:07:23.505Z,9.80
2019-03-22T03:09:52.105Z,9.80
2019-03-22T03:12:20.707Z,9.80
2019-03-22T03:14:49.854Z,9.70
2019-03-22T03:17:18.419Z,9.70
2019-03-22T03:20:27.109Z,9.70
2019-03-22T03:23:15.053Z,9.70
2019-03-22T03:25:55.633Z,9.70
2019-03-22T03:28:37.650Z,9.80
2019-03-22T03:31:18.170Z,9.70
2019-03-22T03:33:59.263Z,9.70
2019-03-22T03:36:40.388Z,9.60
2019-03-22T03:39:21.254Z,9.60
2019-03-22T03:42:00.577Z,9.60
2019-03-22T03:44:48.481Z,9.60
2019-03-22T03:47:36.382Z,9.60
2019-03-22T03:50:24.335Z,9.60
2019-03-22T03:53:12.259Z,9.60
2019-03-22T03:56:00.184Z,9.60
2019-03-22T03:58:52.665Z,9.50
2019-03-22T04:01:37.675Z,9.50
2019-03-22T04:04:25.614Z,9.50
2019-03-22T04:07:13.513Z,9.50
2019-03-22T04:09:42.129Z,9.50
2019-03-22T04:12:30.069Z,9.50
2019-03-22T04:15:11.107Z,9.50
2019-03-22T04:17:52.348Z,9.60
2019-03-22T04:20:33.534Z,9.60
2019-03-22T04:23:14.805Z,9.50
2019-03-22T04:25:55.624Z,9.60
2019-03-22T04:28:36.222Z,9.70
2019-03-22T04:31:16.959Z,9.70
2019-03-22T04:33:57.434Z,9.80
2019-03-22T04:36:38.167Z,9.70
2019-03-22T04:39:19.185Z,9.70
2019-03-22T04:41:59.919Z,9.80
2019-03-22T04:44:40.448Z,9.80
2019-03-22T04:47:21.448Z,9.70
2019-03-22T04:50:02.148Z,9.70
2019-03-22T04:52:43.288Z,9.70
2019-03-22T04:55:24.474Z,9.70
2019-03-22T04:58:05.466Z,9.80
2019-03-22T05:00:46.685Z,9.80
2019-03-22T05:03:27.872Z,9.80
2019-03-22T05:06:08.224Z,9.80
2019-03-22T05:08:49.156Z,9.90
2019-03-22T05:11:30.001Z,9.90
2019-03-22T05:14:11.256Z,9.90
2019-03-22T05:16:52.316Z,9.90
2019-03-22T05:19:33.467Z,9.80
2019-03-22T05:22:14.720Z,9.70
2019-03-22T05:24:55.943Z,9.70
2019-03-22T05:27:36.594Z,9.70
2019-03-22T05:30:17.173Z,9.70
2019-03-22T05:32:58.413Z,9.70
2019-03-22T05:35:39.598Z,9.70
2019-03-22T05:38:20.733Z,9.80
2019-03-22T05:41:01.909Z,9.80
2019-03-22T05:43:43.126Z,9.90
2019-03-22T05:46:24.173Z,10.00
2019-03-22T05:49:04.684Z,10.00
2019-03-22T05:51:45.529Z,9.90
2019-03-22T05:54:26.569Z,9.90
2019-03-22T05:57:13.457Z,9.90
2019-03-22T05:59:50.720Z,9.90
2019-03-22T06:02:31.993Z,9.90
2019-03-22T06:05:12.713Z,10.00
2019-03-22T06:07:53.997Z,10.00
2019-03-22T06:10:35.563Z,9.90
2019-03-22T06:13:16.827Z,9.90
2019-03-22T06:15:58.028Z,9.80
2019-03-22T06:18:38.613Z,9.70
2019-03-22T06:21:19.731Z,9.70
2019-03-22T06:24:00.638Z,9.60
2019-03-22T06:26:41.807Z,9.60
2019-03-22T06:29:22.503Z,9.60
2019-03-22T06:32:04.333Z,9.60
2019-03-22T06:34:32.965Z,9.60
2019-03-22T06:37:01.560Z,9.70
2019-03-22T06:39:30.124Z,9.80
2019-03-22T06:41:58.703Z,9.90
2019-03-22T06:44:30.038Z,9.90
2019-03-22T06:50:24.852Z,9.90
2019-03-22T06:53:12.830Z,10.00
2019-03-22T06:56:00.753Z,10.00
2019-03-22T06:58:48.694Z,10.10
2019-03-22T07:01:36.613Z,10.10
2019-03-22T07:04:24.550Z,10.20
2019-03-22T07:09:48.385Z,10.10
2019-03-22T07:15:43.403Z,10.10
2019-03-22T07:18:31.345Z,10.10
2019-03-22T07:24:26.153Z,10.10
2019-03-22T07:27:14.071Z,10.10
2019-03-22T07:29:55.210Z,10.10
2019-03-22T07:32:35.905Z,10.10
2019-03-22T07:35:16.724Z,10.10
2019-03-22T07:37:57.067Z,10.20
2019-03-22T07:40:38.525Z,10.20
2019-03-22T07:46:01.717Z,10.10
2019-03-22T07:48:42.502Z,10.10
2019-03-22T07:51:23.243Z,10.00
2019-03-22T07:54:04.152Z,10.10
2019-03-22T07:56:45.159Z,10.10
2019-03-22T07:59:25.616Z,10.10
2019-03-22T08:02:06.197Z,10.10
2019-03-22T08:04:47.325Z,10.10
2019-03-22T08:07:28.514Z,10.10
2019-03-22T08:10:08.995Z,10.20
2019-03-22T08:12:49.405Z,10.20
2019-03-22T08:15:30.412Z,10.20
2019-03-22T08:18:11.307Z,10.20
2019-03-22T08:20:52.038Z,10.20
2019-03-22T08:23:33.833Z,10.20
2019-03-22T08:26:14.599Z,10.20
2019-03-22T08:28:55.490Z,10.20
2019-03-22T08:31:36.739Z,10.30
2019-03-22T08:34:17.543Z,10.30
2019-03-22T08:36:58.492Z,10.30
2019-03-22T08:39:39.390Z,10.40
2019-03-22T08:42:20.058Z,10.50
2019-03-22T08:45:00.586Z,10.50
2019-03-22T08:47:39.519Z,10.40
2019-03-22T08:50:27.442Z,10.40
2019-03-22T08:53:15.350Z,10.40
2019-03-22T08:56:03.285Z,10.50
2019-03-22T08:58:51.241Z,10.50
2019-03-22T09:01:39.177Z,10.50
2019-03-22T09:04:27.124Z,10.60
2019-03-22T09:07:15.385Z,10.70
2019-03-22T09:10:24.054Z,10.70
2019-03-22T09:13:11.948Z,10.70
2019-03-22T09:15:59.909Z,10.70
2019-03-22T09:18:59.732Z,10.80
2019-03-22T09:21:37.428Z,10.70
2019-03-22T09:24:38.252Z,10.60
2019-03-22T09:27:15.013Z,10.70
2019-03-22T09:29:55.421Z,10.80
2019-03-22T09:32:35.990Z,10.90
2019-03-22T09:35:17.250Z,11.00
2019-03-22T09:37:58.179Z,11.00
2019-03-22T09:40:38.594Z,11.00
2019-03-22T09:43:19.744Z,11.00
2019-03-22T09:46:00.230Z,11.10
2019-03-22T09:48:40.798Z,11.10
2019-03-22T09:51:21.672Z,11.00
2019-03-22T09:54:02.357Z,11.10
2019-03-22T09:56:47.381Z,11.10
2019-03-22T09:59:25.635Z,11.10
2019-03-22T10:02:06.774Z,11.20
2019-03-22T10:04:50.305Z,11.20
2019-03-22T10:07:30.921Z,11.20
2019-03-22T10:10:11.841Z,11.30
2019-03-22T10:12:52.182Z,11.40
2019-03-22T10:15:33.505Z,11.40
2019-03-22T10:18:14.558Z,11.50
2019-03-22T10:20:55.736Z,11.50
2019-03-22T10:23:36.261Z,11.40
2019-03-22T10:26:16.611Z,11.30
2019-03-22T10:28:57.763Z,11.30
2019-03-22T10:31:38.107Z,11.50
2019-03-22T10:34:18.556Z,11.60
2019-03-22T10:36:58.948Z,11.60
2019-03-22T10:39:40.275Z,11.60
2019-03-22T10:42:20.867Z,11.70
2019-03-22T10:45:01.772Z,11.80
2019-03-22T10:47:30.362Z,11.90
2019-03-22T10:50:18.265Z,12.00
2019-03-22T10:53:06.243Z,12.00
2019-03-22T10:55:54.101Z,12.00
2019-03-22T10:58:42.041Z,12.10
2019-03-22T11:01:29.988Z,12.20
2019-03-22T11:04:17.975Z,12.40
2019-03-22T11:07:05.893Z,12.40
2019-03-22T11:09:53.832Z,12.20
2019-03-22T11:12:41.787Z,12.20
2019-03-22T11:15:29.726Z,12.40
2019-03-22T11:18:18.269Z,12.30
2019-03-22T11:21:06.187Z,12.40
2019-03-22T11:26:47.654Z,12.80
2019-03-22T11:29:35.598Z,13.00
2019-03-22T11:32:16.745Z,13.20
2019-03-22T11:34:57.533Z,13.30
2019-03-22T11:37:38.762Z,13.60
2019-03-22T11:40:19.511Z,13.90
2019-03-22T11:43:08.162Z,14.20
2019-03-22T11:45:43.078Z,14.40
2019-03-22T11:48:23.429Z,14.60
2019-03-22T11:51:04.613Z,14.80
2019-03-22T11:53:45.400Z,14.80
2019-03-22T11:56:26.234Z,14.90
2019-03-22T11:59:07.119Z,14.90
2019-03-22T12:04:29.910Z,14.60
2019-03-22T12:07:10.546Z,14.60
2019-03-22T12:09:58.445Z,14.50
2019-03-22T12:18:32.921Z,14.40
2019-03-22T12:21:20.974Z,14.50
2019-03-22T12:24:08.923Z,14.50
2019-03-22T12:26:56.852Z,14.40
2019-03-22T12:29:44.814Z,14.40
2019-03-22T12:32:32.195Z,14.30
2019-03-22T12:35:08.058Z,14.10
2019-03-22T12:37:48.642Z,14.10
2019-03-22T12:40:29.375Z,14.10
2019-03-22T12:43:10.293Z,14.30
2019-03-22T12:45:51.261Z,14.40
2019-03-22T12:48:32.365Z,14.40
2019-03-22T12:51:13.337Z,14.40
2019-03-22T12:53:54.537Z,14.40
2019-03-22T12:56:35.314Z,14.40
2019-03-22T12:59:15.966Z,14.40
2019-03-22T13:01:56.791Z,14.50
2019-03-22T13:04:37.586Z,14.60
2019-03-22T13:07:18.217Z,14.70
2019-03-22T13:09:58.649Z,14.70
2019-03-22T13:12:39.806Z,14.80
2019-03-22T13:15:20.243Z,14.90
2019-03-22T13:18:00.921Z,14.90
2019-03-22T13:20:41.567Z,14.90
2019-03-22T13:23:22.166Z,14.80
2019-03-22T13:26:02.819Z,14.80
2019-03-22T13:28:43.587Z,14.80
2019-03-22T13:31:24.111Z,14.90
2019-03-22T13:34:05.481Z,15.00
2019-03-22T13:36:46.504Z,15.10
2019-03-22T13:39:27.316Z,15.00
2019-03-22T13:42:07.738Z,15.00
2019-03-22T13:44:48.443Z,14.90
2019-03-22T13:47:29.358Z,14.90
2019-03-22T13:50:10.557Z,15.00
2019-03-22T13:52:39.196Z,15.00
2019-03-22T13:55:08.057Z,15.10
2019-03-22T13:57:36.928Z,15.10
2019-03-22T14:00:24.848Z,15.20
2019-03-22T14:03:12.800Z,15.20
2019-03-22T14:06:00.728Z,15.30
2019-03-22T14:08:48.669Z,15.40
2019-03-22T14:14:44.293Z,15.40
2019-03-22T14:20:39.067Z,15.60
2019-03-22T14:23:27.033Z,15.50
2019-03-22T14:29:21.850Z,15.40
2019-03-22T14:32:03.231Z,15.50
2019-03-22T14:34:43.921Z,15.40
2019-03-22T14:37:12.564Z,15.50
2019-03-22T14:39:41.171Z,15.60
2019-03-22T14:42:10.106Z,15.60
2019-03-22T14:44:38.737Z,15.60
2019-03-22T14:47:07.299Z,15.60
2019-03-22T14:49:35.972Z,15.60
2019-03-22T14:52:04.901Z,15.60
2019-03-22T14:54:33.868Z,15.60
2019-03-22T14:57:02.703Z,15.60
2019-03-22T14:59:58.602Z,15.60
2019-03-22T15:05:34.892Z,15.60
2019-03-22T15:08:22.952Z,15.60
2019-03-22T15:11:10.901Z,15.70
2019-03-22T15:14:00.448Z,15.70
2019-03-22T15:17:07.608Z,15.70
2019-03-22T15:20:15.307Z,15.70
2019-03-22T15:23:22.402Z,15.80
2019-03-22T15:26:29.534Z,15.80
2019-03-22T15:29:17.317Z,15.80
2019-03-22T15:32:05.087Z,15.80
2019-03-22T15:35:12.282Z,15.70
2019-03-22T15:38:19.343Z,15.70
2019-03-22T15:40:47.913Z,15.70
2019-03-22T15:43:35.857Z,15.70
2019-03-22T15:46:23.816Z,15.70
2019-03-22T15:48:52.469Z,15.70
2019-03-22T15:51:21.040Z,15.70
2019-03-22T15:53:49.640Z,15.70
2019-03-22T15:56:18.205Z,15.70
2019-03-22T15:58:46.820Z,15.70
2019-03-22T16:01:35.197Z,15.70
2019-03-22T16:04:23.153Z,15.60
2019-03-22T16:07:11.094Z,15.70
2019-03-22T16:09:59.041Z,15.70
2019-03-22T16:12:47.024Z,15.70
2019-03-22T16:15:34.963Z,15.70
2019-03-22T16:18:22.871Z,15.60
2019-03-22T16:23:46.403Z,15.60
2019-03-22T16:26:34.323Z,15.60
2019-03-22T16:29:22.270Z,15.50
2019-03-22T16:32:23.853Z,15.50
2019-03-22T16:34:40.536Z,15.50
2019-03-22T16:37:09.121Z,15.50
2019-03-22T16:45:51.292Z,15.40
2019-03-22T16:48:39.237Z,15.40
2019-03-22T16:51:27.148Z,15.30
2019-03-22T16:54:15.089Z,15.20
2019-03-22T16:57:03.005Z,15.20
2019-03-22T16:59:51.014Z,15.20
2019-03-22T17:02:39.150Z,15.20
2019-03-22T17:05:08.291Z,15.10
2019-03-22T17:07:56.346Z,15.10
2019-03-22T17:10:25.017Z,15.10
2019-03-22T17:12:53.642Z,15.00
2019-03-22T17:15:22.252Z,15.00
2019-03-22T17:17:50.873Z,15.00
2019-03-22T17:20:19.446Z,14.90
2019-03-22T17:22:48.114Z,14.90
2019-03-22T17:25:16.720Z,14.80
2019-03-22T17:28:04.708Z,14.80
2019-03-22T17:30:52.649Z,14.70
2019-03-22T17:33:33.343Z,14.70
2019-03-22T17:36:14.631Z,14.60
2019-03-22T17:38:55.903Z,14.60
2019-03-22T17:41:37.316Z,14.60
2019-03-22T17:44:18.281Z,14.50
2019-03-22T17:46:58.846Z,14.40
2019-03-22T17:49:47.796Z,14.30
2019-03-22T17:52:22.316Z,14.30
2019-03-22T17:55:02.859Z,14.20
2019-03-22T17:57:31.472Z,14.20
2019-03-22T18:00:00.057Z,14.20
2019-03-22T18:02:28.673Z,14.10
2019-03-22T18:04:57.247Z,14.10
2019-03-22T18:07:45.189Z,14.00
2019-03-22T18:10:33.153Z,14.00
2019-03-22T18:13:21.081Z,14.00
2019-03-22T18:16:09.010Z,13.90
2019-03-22T18:18:56.933Z,13.80
2019-03-22T18:21:44.877Z,13.80
2019-03-22T18:24:32.793Z,13.80
2019-03-22T18:27:20.850Z,13.80
2019-03-22T18:30:28.118Z,13.70
2019-03-22T18:33:16.035Z,13.70
2019-03-22T18:35:57.143Z,13.70
2019-03-22T18:38:37.790Z,13.60
2019-03-22T18:41:18.362Z,13.50
2019-03-22T18:43:46.951Z,13.50
2019-03-22T18:46:15.772Z,13.50
2019-03-22T18:49:03.698Z,13.50
2019-03-22T18:51:51.649Z,13.40
2019-03-22T18:54:39.557Z,13.40
2019-03-22T18:57:27.571Z,13.30
2019-03-22T18:59:56.205Z,13.30
2019-03-22T19:02:44.161Z,13.30
2019-03-22T19:05:32.205Z,13.30
2019-03-22T19:08:20.145Z,13.20
2019-03-22T19:11:08.070Z,13.20
2019-03-22T19:13:56.011Z,13.20
2019-03-22T19:16:43.958Z,13.10
2019-03-22T19:19:31.863Z,13.10
2019-03-22T19:22:19.830Z,13.00
2019-03-22T19:25:08.474Z,13.00
2019-03-22T19:27:56.376Z,13.00
2019-03-22T19:30:44.325Z,12.90
2019-03-22T19:33:32.273Z,12.90
2019-03-22T19:36:13.277Z,12.80
2019-03-22T19:38:53.737Z,12.80
2019-03-22T19:41:34.873Z,12.80
2019-03-22T19:44:15.584Z,12.70
2019-03-22T19:46:56.790Z,12.70
2019-03-22T19:49:37.625Z,12.70
2019-03-22T19:52:18.484Z,12.70
2019-03-22T19:54:59.674Z,12.60
2019-03-22T19:57:40.922Z,13.00
2019-03-22T20:00:22.294Z,12.50
2019-03-22T20:03:03.132Z,12.50
2019-03-22T20:05:43.697Z,12.50
2019-03-22T20:08:24.670Z,12.50
2019-03-22T20:11:05.214Z,12.50
2019-03-22T20:13:46.495Z,12.40
2019-03-22T20:16:27.014Z,12.40
2019-03-22T20:18:55.620Z,12.40
2019-03-22T20:21:24.237Z,12.30
2019-03-22T20:23:53.987Z,12.30
2019-03-22T20:26:23.480Z,12.30
2019-03-22T20:31:58.119Z,12.20
2019-03-22T20:34:38.638Z,12.20
2019-03-22T20:37:19.026Z,12.20
2019-03-22T20:39:59.480Z,12.10
2019-03-22T20:42:39.993Z,12.10
2019-03-22T20:45:24.339Z,12.00
2019-03-22T20:48:03.589Z,12.00
2019-03-22T20:50:44.699Z,12.00
2019-03-22T20:53:25.316Z,11.90
2019-03-22T20:56:07.170Z,12.00
2019-03-22T20:58:48.187Z,12.10
2019-03-22T21:01:29.049Z,12.10
2019-03-22T21:04:09.546Z,12.10
2019-03-22T21:06:50.017Z,12.10
2019-03-22T21:09:31.364Z,12.10
2019-03-22T21:12:12.442Z,12.00
2019-03-22T21:14:53.518Z,12.00
2019-03-22T21:17:34.380Z,11.90
2019-03-22T21:20:15.233Z,11.90
2019-03-22T21:22:56.073Z,11.90
2019-03-22T21:25:37.398Z,11.80
2019-03-22T21:28:18.027Z,11.80
2019-03-22T21:30:59.171Z,11.80
2019-03-22T21:33:39.728Z,11.80
2019-03-22T21:36:20.714Z,11.80
2019-03-22T21:39:01.403Z,11.70
2019-03-22T21:44:24.553Z,11.70
2019-03-22T21:47:04.938Z,11.60
2019-03-22T21:49:45.682Z,11.50
2019-03-22T21:52:26.569Z,11.40
2019-03-22T21:55:07.905Z,11.30
2019-03-22T21:57:48.368Z,11.20
2019-03-22T22:00:28.968Z,11.20
2019-03-22T22:03:09.316Z,11.20
2019-03-22T22:05:50.305Z,11.20
2019-03-22T22:08:31.384Z,11.10
2019-03-22T22:13:52.013Z,11.00
2019-03-22T22:16:32.877Z,11.00
2019-03-22T22:19:13.701Z,10.90
2019-03-22T22:21:54.203Z,10.90
2019-03-22T22:24:34.747Z,10.90
2019-03-22T22:27:15.364Z,10.80
2019-03-22T22:29:56.024Z,10.80
2019-03-22T22:32:37.453Z,10.80
2019-03-22T22:35:18.401Z,10.70
2019-03-22T22:37:59.626Z,10.70
2019-03-22T22:40:40.437Z,10.60
2019-03-22T22:43:20.956Z,10.60
2019-03-22T22:46:02.022Z,10.60
2019-03-22T22:48:43.213Z,10.50
2019-03-22T22:51:23.940Z,10.50
2019-03-22T22:53:52.522Z,10.40
2019-03-22T22:56:21.155Z,10.40
2019-03-22T22:58:49.693Z,10.40
2019-03-22T23:01:18.339Z,10.40
2019-03-22T23:04:06.279Z,10.30
2019-03-22T23:06:54.257Z,10.30
2019-03-22T23:09:42.197Z,10.30
2019-03-22T23:12:30.218Z,10.30
2019-03-22T23:15:18.120Z,10.30
2019-03-22T23:18:06.073Z,10.20
2019-03-22T23:20:53.984Z,10.20
2019-03-22T23:23:41.926Z,10.20
2019-03-22T23:29:23.582Z,10.20
2019-03-22T23:32:11.536Z,10.20
2019-03-22T23:34:59.544Z,10.20
2019-03-22T23:37:49.025Z,10.10
2019-03-22T23:40:36.933Z,10.10
2019-03-22T23:43:24.881Z,10.10
2019-03-22T23:46:12.785Z,10.10
2019-03-22T23:49:00.724Z,10.10
2019-03-22T23:51:48.677Z,10.00
2019-03-22T23:54:36.590Z,10.00
2019-03-22T23:57:24.537Z,10.00
